Time;durP1;ratioP1;P1;durP2;ratioP2;P2;SDS_P1;SDS_P2;PMS_P1;PMS_P2;Temp;Humidity;BMP_temperature;BMP_pressure;BME280_temperature;BME280_humidity;BME280_pressure;Samples;Min_cycle;Max_cycle;Signal;HPM_P1;HPM_P2
2023/05/12 00:00:44;;;;;;;5.65;3.40;;;13.00;99.90;;;;;;10371814;28;20196;-79
2023/05/12 00:06:25;;;;;;;5.13;3.45;;;12.90;99.90;;;;;;10360165;28;20200;-78
2023/05/12 00:11:47;;;;;;;6.45;3.45;;;12.90;99.90;;;;;;10359876;28;20243;-78
2023/05/12 00:17:08;;;;;;;6.68;3.50;;;12.90;99.90;;;;;;10359052;28;20423;-77
2023/05/12 00:22:30;;;;;;;5.55;3.60;;;12.90;99.90;;;;;;10359560;28;20274;-78
2023/05/12 00:27:51;;;;;;;4.55;3.80;;;12.80;99.90;;;;;;10367402;28;20286;-80
2023/05/12 00:33:12;;;;;;;7.72;4.32;;;12.70;99.90;;;;;;10372822;28;20227;-77
2023/05/12 00:38:36;;;;;;;5.93;3.67;;;12.70;99.90;;;;;;10359011;28;20225;-79
2023/05/12 00:43:57;;;;;;;5.65;3.30;;;12.70;99.90;;;;;;10358086;28;20199;-79
2023/05/12 00:49:19;;;;;;;6.25;3.90;;;12.50;99.90;;;;;;10358761;28;20207;-79
2023/05/12 00:54:42;;;;;;;6.22;3.80;;;12.50;99.90;;;;;;10356711;28;20207;-79
2023/05/12 01:00:05;;;;;;;7.13;3.95;;;12.40;99.90;;;;;;10364021;28;20262;-79
2023/05/12 01:05:33;;;;;;;6.10;3.70;;;12.40;99.90;;;;;;10392793;28;20206;-80
2023/05/12 01:10:54;;;;;;;8.82;3.80;;;12.30;99.90;;;;;;10397326;28;20571;-78
2023/05/12 01:16:21;;;;;;;8.40;4.13;;;12.20;99.90;;;;;;10392388;28;20235;-77
2023/05/12 01:21:43;;;;;;;7.18;3.67;;;12.20;99.90;;;;;;10356145;28;20655;-78
2023/05/12 01:27:04;;;;;;;5.05;3.58;;;12.10;99.90;;;;;;10345724;28;20200;-79
2023/05/12 01:32:26;;;;;;;4.40;3.33;;;12.10;99.90;;;;;;10381163;28;20239;-78
2023/05/12 01:37:47;;;;;;;7.65;3.20;;;12.00;99.90;;;;;;10356551;28;20220;-79
2023/05/12 01:43:08;;;;;;;5.03;3.13;;;12.00;99.90;;;;;;10341405;28;20384;-78
2023/05/12 01:48:29;;;;;;;8.65;3.22;;;12.00;99.90;;;;;;10358780;28;20203;-78
2023/05/12 01:53:51;;;;;;;6.63;3.60;;;11.80;99.90;;;;;;10346945;28;20195;-77
2023/05/12 01:59:13;;;;;;;4.90;3.38;;;11.70;99.90;;;;;;10357868;28;20226;-79
2023/05/12 02:04:35;;;;;;;4.95;3.47;;;11.70;99.90;;;;;;10369266;28;20501;-78
2023/05/12 02:09:57;;;;;;;3.97;2.97;;;11.70;99.90;;;;;;10354554;28;20221;-78
2023/05/12 02:15:19;;;;;;;5.18;3.50;;;11.60;99.90;;;;;;10340286;28;20211;-78
2023/05/12 02:20:40;;;;;;;5.00;3.50;;;11.60;99.90;;;;;;10357878;28;20397;-79
2023/05/12 02:26:02;;;;;;;4.75;3.60;;;11.60;99.90;;;;;;10354381;28;20541;-79
2023/05/12 02:31:23;;;;;;;9.00;3.75;;;11.60;99.90;;;;;;10391949;28;20226;-77
2023/05/12 02:36:46;;;;;;;5.55;4.13;;;11.50;99.90;;;;;;10355096;28;20563;-79
2023/05/12 02:42:08;;;;;;;6.78;3.58;;;11.60;99.90;;;;;;10339943;28;20519;-79
2023/05/12 02:47:31;;;;;;;6.43;3.88;;;11.50;99.90;;;;;;10364084;28;20211;-79
2023/05/12 02:52:53;;;;;;;9.10;4.25;;;11.50;99.90;;;;;;10394252;28;20195;-80
2023/05/12 02:58:14;;;;;;;9.30;4.47;;;11.50;99.90;;;;;;10393337;28;20298;-79
2023/05/12 03:03:36;;;;;;;8.05;4.45;;;11.40;99.90;;;;;;10372729;28;20200;-79
2023/05/12 03:08:58;;;;;;;8.13;4.32;;;11.30;99.90;;;;;;10355635;28;20202;-79
2023/05/12 03:14:19;;;;;;;11.63;6.05;;;11.40;99.90;;;;;;10353065;28;20273;-80
2023/05/12 03:19:40;;;;;;;32.58;16.67;;;11.40;99.90;;;;;;10352509;28;20227;-77
2023/05/12 03:25:05;;;;;;;35.67;19.65;;;11.40;99.90;;;;;;10355392;28;20204;-78
2023/05/12 03:30:26;;;;;;;22.67;14.32;;;11.40;99.90;;;;;;10363971;28;20311;-78
2023/05/12 03:35:47;;;;;;;17.58;11.73;;;11.40;99.90;;;;;;10361037;28;20232;-78
2023/05/12 03:41:10;;;;;;;28.27;13.70;;;11.40;99.90;;;;;;10360805;28;20202;-79
2023/05/12 03:46:32;;;;;;;19.90;11.48;;;11.30;99.90;;;;;;10361132;28;20278;-79
2023/05/12 03:51:53;;;;;;;13.23;6.05;;;11.40;99.90;;;;;;10359721;28;20335;-79
2023/05/12 03:57:14;;;;;;;14.50;5.88;;;11.40;99.90;;;;;;10359924;28;20531;-79
2023/05/12 04:02:35;;;;;;;9.68;5.20;;;11.40;99.90;;;;;;10386833;28;20190;-79
2023/05/12 04:07:56;;;;;;;7.65;5.05;;;11.50;99.90;;;;;;10363119;28;20233;-80
2023/05/12 04:13:17;;;;;;;8.73;3.78;;;11.60;99.90;;;;;;10367459;28;20508;-79
2023/05/12 04:18:38;;;;;;;6.80;3.80;;;11.60;99.90;;;;;;10369461;28;20256;-78
2023/05/12 04:24:01;;;;;;;9.65;4.43;;;11.70;99.90;;;;;;10359806;28;20207;-78
2023/05/12 04:29:26;;;;;;;7.13;4.30;;;11.80;99.90;;;;;;10380549;28;20272;-79
2023/05/12 04:34:48;;;;;;;8.98;3.88;;;11.90;99.90;;;;;;10376028;28;20231;-79
2023/05/12 04:40:11;;;;;;;5.35;3.55;;;12.00;99.90;;;;;;10357268;28;20253;-78
2023/05/12 04:45:32;;;;;;;11.25;3.97;;;12.10;99.90;;;;;;10357605;28;20266;-78
2023/05/12 04:50:53;;;;;;;9.93;3.90;;;12.10;99.90;;;;;;10367163;28;20206;-78
2023/05/12 04:56:14;;;;;;;8.80;3.85;;;12.20;99.90;;;;;;10357342;28;20210;-78
2023/05/12 05:01:35;;;;;;;5.53;3.88;;;12.30;99.90;;;;;;10366672;28;20386;-77
2023/05/12 05:06:57;;;;;;;8.18;3.85;;;12.30;99.90;;;;;;10357118;28;20235;-79
2023/05/12 05:12:18;;;;;;;8.23;4.25;;;12.40;99.90;;;;;;10356917;28;20225;-78
2023/05/12 05:17:41;;;;;;;7.50;3.85;;;12.40;99.90;;;;;;10346268;28;20235;-79
2023/05/12 05:23:04;;;;;;;8.65;3.78;;;12.50;99.90;;;;;;10356254;28;20252;-78
2023/05/12 05:28:25;;;;;;;11.25;4.00;;;12.70;99.90;;;;;;10369864;28;20225;-78
2023/05/12 05:33:46;;;;;;;12.07;4.28;;;12.90;99.90;;;;;;10364461;28;20416;-77
2023/05/12 05:39:09;;;;;;;11.55;4.80;;;13.00;99.90;;;;;;10355558;28;20285;-78
2023/05/12 05:44:30;;;;;;;11.50;4.63;;;13.10;99.90;;;;;;10358087;28;20543;-79
2023/05/12 05:49:51;;;;;;;10.82;3.33;;;13.40;99.90;;;;;;10386437;28;20210;-79
2023/05/12 05:55:13;;;;;;;9.50;4.07;;;13.50;99.90;;;;;;10394864;28;20348;-78
2023/05/12 06:00:34;;;;;;;7.47;3.97;;;13.60;99.90;;;;;;10390780;28;20591;-79
2023/05/12 06:05:56;;;;;;;5.85;3.60;;;13.80;99.90;;;;;;10394843;28;20453;-78
2023/05/12 06:11:17;;;;;;;10.32;4.20;;;14.20;99.90;;;;;;10381496;28;20199;-78
2023/05/12 06:16:39;;;;;;;8.00;3.45;;;14.50;99.90;;;;;;10372693;28;20244;-79
2023/05/12 06:22:01;;;;;;;7.30;3.97;;;14.80;99.90;;;;;;10383623;28;20201;-78
2023/05/12 06:27:22;;;;;;;7.07;3.53;;;15.20;99.90;;;;;;10359191;28;20191;-79
2023/05/12 06:32:43;;;;;;;9.63;4.55;;;15.60;99.90;;;;;;10390827;28;20231;-78
2023/05/12 06:38:04;;;;;;;10.18;3.97;;;16.40;99.90;;;;;;10394493;28;20302;-79
2023/05/12 06:43:26;;;;;;;9.55;3.17;;;16.80;99.90;;;;;;10394397;28;20188;-78
2023/05/12 06:48:48;;;;;;;8.18;3.55;;;17.60;99.90;;;;;;10352506;28;20253;-79
2023/05/12 06:54:09;;;;;;;5.25;3.40;;;18.60;99.90;;;;;;10352548;28;20194;-79
2023/05/12 06:59:30;;;;;;;5.13;2.97;;;19.10;99.90;;;;;;10368406;28;20260;-78
2023/05/12 07:04:51;;;;;;;8.27;3.30;;;19.50;99.90;;;;;;10362727;28;20220;-79
2023/05/12 07:10:12;;;;;;;8.07;3.40;;;19.70;99.90;;;;;;10382450;28;20193;-79
2023/05/12 07:15:33;;;;;;;9.05;4.10;;;20.20;99.90;;;;;;10394419;28;20428;-78
2023/05/12 07:20:54;;;;;;;7.05;3.00;;;20.90;99.90;;;;;;10361597;28;20283;-80
2023/05/12 07:26:17;;;;;;;7.30;3.33;;;21.10;99.90;;;;;;10354926;28;20753;-86
2023/05/12 07:31:39;;;;;;;3.58;2.75;;;21.20;99.90;;;;;;10388632;28;20267;-78
2023/05/12 07:37:01;;;;;;;14.13;3.60;;;21.40;99.90;;;;;;10411281;28;20411;-76
2023/05/12 07:42:23;;;;;;;8.27;2.85;;;22.10;99.90;;;;;;10397651;28;20197;-86
2023/05/12 07:47:44;;;;;;;6.18;3.22;;;22.20;99.90;;;;;;10365499;28;20210;-75
2023/05/12 07:53:05;;;;;;;5.40;2.38;;;22.30;99.90;;;;;;10355907;28;20217;-76
2023/05/12 07:58:26;;;;;;;9.00;3.33;;;22.70;99.90;;;;;;10353187;28;20308;-76
2023/05/12 08:03:49;;;;;;;7.15;2.78;;;22.70;99.90;;;;;;10392708;28;20254;-78
2023/05/12 08:09:11;;;;;;;4.35;2.58;;;22.90;99.90;;;;;;10395940;28;20431;-83
2023/05/12 08:14:32;;;;;;;11.02;3.33;;;23.30;99.90;;;;;;10396268;28;20485;-82
2023/05/12 08:19:53;;;;;;;7.63;3.05;;;23.10;99.90;;;;;;10433592;28;20220;-81
2023/05/12 08:25:14;;;;;;;6.53;2.58;;;23.20;99.90;;;;;;10359396;28;20206;-84
2023/05/12 08:30:36;;;;;;;5.57;2.55;;;23.70;99.90;;;;;;10353977;28;20288;-81
2023/05/12 08:35:57;;;;;;;10.25;2.90;;;23.90;99.90;;;;;;10358739;28;20193;-82
2023/05/12 08:41:28;;;;;;;5.68;2.60;;;24.00;99.90;;;;;;10412844;28;20504;-90
2023/05/12 08:46:53;;;;;;;7.03;2.85;;;24.50;99.90;;;;;;10390170;28;20284;-81
2023/05/12 08:52:20;;;;;;;4.47;3.30;;;24.90;99.90;;;;;;10395405;28;20189;-81
2023/05/12 08:57:44;;;;;;;6.78;3.10;;;25.30;99.90;;;;;;10391762;28;20561;-80
2023/05/12 09:03:06;;;;;;;9.00;2.80;;;25.00;99.90;;;;;;10340151;28;20218;-83
2023/05/12 09:08:29;;;;;;;9.23;2.65;;;24.80;99.90;;;;;;10360944;28;20193;-80
2023/05/12 09:14:20;;;;;;;9.52;2.90;;;24.60;99.90;;;;;;10386643;28;20216;-86
2023/05/12 09:19:41;;;;;;;6.72;2.40;;;25.20;99.90;;;;;;10353746;28;20233;-84
2023/05/12 09:25:17;;;;;;;3.85;2.17;;;25.10;99.90;;;;;;10355251;28;20272;-86
2023/05/12 09:30:41;;;;;;;4.40;2.08;;;24.60;99.90;;;;;;10400161;28;20240;-86
2023/05/12 09:36:02;;;;;;;6.32;2.67;;;24.50;99.90;;;;;;10394751;28;20221;-86
2023/05/12 09:41:24;;;;;;;5.47;2.35;;;24.50;99.90;;;;;;10393186;28;20273;-87
2023/05/12 09:46:47;;;;;;;8.68;2.55;;;25.30;99.90;;;;;;10385697;28;20205;-85
2023/05/12 09:52:09;;;;;;;4.80;2.75;;;25.80;99.90;;;;;;10397842;28;20244;-82
2023/05/12 09:57:30;;;;;;;6.43;2.45;;;25.70;99.90;;;;;;10392688;28;20519;-85
2023/05/12 10:02:52;;;;;;;13.88;5.57;;;26.10;99.90;;;;;;10386819;28;20228;-83
2023/05/12 10:08:20;;;;;;;7.38;2.55;;;26.40;99.90;;;;;;10364110;28;20190;-82
2023/05/12 10:13:42;;;;;;;16.10;3.15;;;26.20;99.90;;;;;;10406849;28;20200;-83
2023/05/12 10:19:04;;;;;;;5.22;2.20;;;26.00;99.90;;;;;;10377465;28;20287;-85
2023/05/12 10:24:26;;;;;;;12.43;2.80;;;25.70;99.90;;;;;;10353498;28;20395;-78
2023/05/12 10:29:48;;;;;;;13.55;2.35;;;25.50;99.90;;;;;;10385804;28;20229;-82
2023/05/12 10:35:12;;;;;;;3.20;2.22;;;25.10;99.90;;;;;;10388529;28;20422;-86
2023/05/12 10:40:33;;;;;;;4.07;1.90;;;25.60;99.90;;;;;;10383132;28;20304;-81
2023/05/12 10:46:19;;;;;;;6.55;2.33;;;25.60;99.90;;;;;;10397841;28;20197;-85
2023/05/12 10:51:43;;;;;;;3.55;2.17;;;25.20;99.90;;;;;;10355301;28;20206;-81
2023/05/12 10:57:12;;;;;;;10.27;2.58;;;24.90;99.90;;;;;;10335407;28;20911;-87
2023/05/12 11:02:36;;;;;;;9.52;2.30;;;25.00;99.90;;;;;;10355120;28;20225;-81
2023/05/12 11:07:58;;;;;;;4.70;2.90;;;25.60;99.90;;;;;;10390297;28;20200;-80
2023/05/12 11:13:20;;;;;;;2.85;2.20;;;25.60;99.90;;;;;;10388903;28;20280;-81
2023/05/12 11:18:41;;;;;;;6.00;2.45;;;25.60;99.90;;;;;;10371449;28;20392;-81
2023/05/12 11:24:03;;;;;;;4.57;2.28;;;25.90;99.90;;;;;;10375119;28;20200;-80
2023/05/12 11:29:24;;;;;;;7.30;2.05;;;25.80;99.90;;;;;;10386411;28;20312;-81
2023/05/12 11:34:46;;;;;;;7.20;2.30;;;25.40;99.90;;;;;;10385844;28;20263;-80
2023/05/12 11:40:14;;;;;;;4.70;2.20;;;25.70;99.90;;;;;;10389843;28;20224;-79
2023/05/12 11:45:35;;;;;;;4.28;2.45;;;25.60;99.90;;;;;;10390017;28;20212;-81
2023/05/12 11:50:57;;;;;;;7.63;2.20;;;25.30;99.90;;;;;;10392028;28;20212;-80
2023/05/12 11:56:23;;;;;;;8.13;2.40;;;25.50;99.90;;;;;;10397800;28;20268;-79
2023/05/12 12:01:45;;;;;;;6.32;2.35;;;25.30;99.90;;;;;;10389937;28;20223;-81
2023/05/12 12:07:08;;;;;;;6.78;2.47;;;25.00;99.90;;;;;;10395690;28;20539;-78
2023/05/12 12:12:29;;;;;;;9.05;2.78;;;25.40;99.90;;;;;;10396215;28;20193;-75
2023/05/12 12:17:50;;;;;;;8.15;2.70;;;25.10;99.90;;;;;;10391734;28;20229;-79
2023/05/12 12:23:11;;;;;;;4.40;2.10;;;25.20;99.90;;;;;;10390810;28;20204;-80
2023/05/12 12:28:33;;;;;;;4.25;2.33;;;25.40;99.90;;;;;;10391876;28;20251;-86
2023/05/12 12:33:53;;;;;;;7.90;2.60;;;25.30;99.90;;;;;;10412266;28;20240;-78
2023/05/12 12:39:15;;;;;;;6.78;2.13;;;24.80;99.90;;;;;;10395442;28;20251;-79
2023/05/12 12:44:38;;;;;;;6.70;2.63;;;24.70;99.90;;;;;;10395451;28;20196;-81
2023/05/12 12:49:59;;;;;;;15.43;2.70;;;24.70;99.90;;;;;;10371255;28;20213;-80
2023/05/12 12:55:20;;;;;;;5.50;2.30;;;24.10;99.90;;;;;;10395101;28;20249;-79
2023/05/12 13:00:42;;;;;;;5.63;2.50;;;24.30;99.90;;;;;;10390319;28;20227;-79
2023/05/12 13:06:03;;;;;;;5.78;2.20;;;24.00;99.90;;;;;;10369767;28;20281;-79
2023/05/12 13:11:25;;;;;;;7.50;2.55;;;24.20;99.90;;;;;;10373562;28;20209;-78
2023/05/12 13:16:46;;;;;;;6.90;2.65;;;24.30;99.90;;;;;;10385281;28;20292;-79
2023/05/12 13:22:07;;;;;;;6.07;2.15;;;24.30;99.90;;;;;;10402272;28;20235;-79
2023/05/12 13:27:28;;;;;;;6.80;2.20;;;24.10;99.90;;;;;;10378136;28;20204;-77
2023/05/12 13:32:49;;;;;;;5.32;2.53;;;23.60;99.90;;;;;;10377412;28;20259;-80
2023/05/12 13:38:11;;;;;;;4.35;2.35;;;23.30;99.90;;;;;;10386220;28;20231;-80
2023/05/12 13:43:31;;;;;;;6.55;2.10;;;23.30;99.90;;;;;;10387213;28;20570;-76
2023/05/12 13:49:45;;;;;;;4.50;1.90;;;22.70;99.90;;;;;;10378605;28;20331;-75
2023/05/12 13:55:07;;;;;;;7.10;2.22;;;22.60;99.90;;;;;;10378052;28;20538;-81
2023/05/12 14:00:28;;;;;;;6.00;2.33;;;22.80;99.90;;;;;;10370097;28;20613;-76
2023/05/12 14:05:49;;;;;;;8.65;1.77;;;23.00;99.90;;;;;;10376847;28;20204;-78
2023/05/12 14:11:10;;;;;;;3.97;2.08;;;22.90;99.90;;;;;;10381071;28;20202;-77
2023/05/12 14:16:31;;;;;;;6.53;2.55;;;22.90;99.90;;;;;;10394844;28;20200;-81
2023/05/12 14:21:52;;;;;;;7.45;1.90;;;22.80;99.90;;;;;;10420431;28;20420;-80
2023/05/12 14:27:14;;;;;;;4.55;2.00;;;22.50;99.90;;;;;;10389028;28;20549;-78
2023/05/12 14:32:35;;;;;;;2.60;1.95;;;22.30;99.90;;;;;;10387930;28;20546;-77
2023/05/12 14:37:56;;;;;;;5.28;2.05;;;22.30;99.90;;;;;;10391279;28;20228;-82
2023/05/12 14:43:17;;;;;;;8.80;2.17;;;22.10;99.90;;;;;;10375886;28;20199;-80
2023/05/12 14:48:38;;;;;;;4.88;2.58;;;22.30;99.90;;;;;;10383520;28;20280;-75
2023/05/12 14:53:59;;;;;;;7.45;2.38;;;22.30;99.90;;;;;;10389546;28;20267;-81
2023/05/12 14:59:21;;;;;;;5.43;2.45;;;22.10;99.90;;;;;;10386123;28;20221;-78
2023/05/12 15:04:42;;;;;;;7.30;2.17;;;21.70;99.90;;;;;;10382603;28;20197;-83
2023/05/12 15:10:04;;;;;;;8.77;2.50;;;21.60;99.90;;;;;;10370933;28;20201;-77
2023/05/12 15:15:25;;;;;;;5.05;2.63;;;21.40;99.90;;;;;;10388452;28;20199;-77
2023/05/12 15:20:46;;;;;;;7.50;2.42;;;21.50;99.90;;;;;;10393536;28;20212;-77
2023/05/12 15:26:07;;;;;;;12.88;2.85;;;21.30;99.90;;;;;;10395946;28;20259;-78
2023/05/12 15:31:35;;;;;;;10.13;2.15;;;21.40;99.90;;;;;;10401668;28;20607;-75
2023/05/12 15:36:57;;;;;;;9.40;2.17;;;21.30;99.90;;;;;;10400662;28;20201;-75
2023/05/12 15:42:18;;;;;;;10.70;2.85;;;21.10;99.90;;;;;;10397599;28;20395;-76
2023/05/12 15:47:42;;;;;;;9.65;2.25;;;21.20;99.90;;;;;;10401170;28;20232;-76
2023/05/12 15:53:03;;;;;;;3.80;2.42;;;21.00;99.90;;;;;;10400803;28;20190;-76
2023/05/12 15:58:43;;;;;;;2.72;2.00;;;21.00;99.90;;;;;;10395447;28;20249;-76
2023/05/12 16:04:24;;;;;;;4.00;2.45;;;21.00;99.90;;;;;;10394938;28;20213;-79
2023/05/12 16:10:05;;;;;;;6.63;2.30;;;20.90;99.90;;;;;;10360017;28;20210;-76
2023/05/12 16:15:45;;;;;;;2.65;2.00;;;20.70;99.90;;;;;;10396949;28;20452;-80
2023/05/12 16:21:25;;;;;;;8.40;2.40;;;20.80;99.90;;;;;;10400071;28;20558;-79
2023/05/12 16:27:05;;;;;;;7.13;2.22;;;20.70;99.90;;;;;;10393843;28;20218;-79
2023/05/12 16:32:46;;;;;;;3.80;2.20;;;20.60;99.90;;;;;;10397751;28;20264;-79
2023/05/12 16:38:26;;;;;;;10.88;2.65;;;20.60;99.90;;;;;;10395837;28;20404;-78
2023/05/12 16:44:06;;;;;;;4.78;2.50;;;20.50;99.90;;;;;;10384140;28;20225;-78
2023/05/12 16:49:46;;;;;;;3.05;2.20;;;20.40;99.90;;;;;;10398618;28;20217;-78
2023/05/12 16:55:25;;;;;;;6.32;2.38;;;20.20;99.90;;;;;;10395572;28;20221;-79
2023/05/12 17:01:05;;;;;;;5.72;2.63;;;20.20;99.90;;;;;;10425847;28;20236;-78
2023/05/12 17:06:46;;;;;;;9.95;4.32;;;20.30;99.90;;;;;;10402429;28;20244;-78
2023/05/12 17:12:26;;;;;;;7.18;3.72;;;20.20;99.90;;;;;;10392853;28;20418;-77
2023/05/12 17:18:06;;;;;;;6.40;3.17;;;20.20;99.90;;;;;;10397934;28;20236;-78
2023/05/12 17:23:46;;;;;;;7.03;2.30;;;20.20;99.90;;;;;;10396196;28;20524;-77
2023/05/12 17:29:27;;;;;;;7.40;2.58;;;20.00;99.90;;;;;;10397218;28;20241;-78
2023/05/12 17:35:07;;;;;;;7.40;2.55;;;19.80;99.90;;;;;;10397263;28;20205;-78
2023/05/12 17:40:47;;;;;;;6.38;3.10;;;19.70;99.90;;;;;;10396592;28;20233;-77
2023/05/12 17:46:27;;;;;;;7.53;2.83;;;19.60;99.90;;;;;;10395851;28;20213;-77
2023/05/12 17:52:07;;;;;;;8.80;3.25;;;;;;;;;;10407614;28;20228;-78
2023/05/12 17:57:48;;;;;;;11.02;3.35;;;21.70;1.00;;;;;;10436320;28;20566;-79
2023/05/12 18:03:09;;;;;;;5.25;2.83;;;19.40;99.90;;;;;;10433781;28;20196;-78
2023/05/12 18:08:31;;;;;;;5.80;3.13;;;19.20;99.90;;;;;;10373732;28;20228;-77
2023/05/12 18:13:52;;;;;;;4.93;2.90;;;19.20;99.90;;;;;;10375032;28;20193;-79
2023/05/12 18:19:14;;;;;;;8.63;3.40;;;19.10;99.90;;;;;;10354966;28;20512;-76
2023/05/12 18:24:35;;;;;;;5.43;3.03;;;19.00;99.90;;;;;;10372103;28;20200;-76
2023/05/12 18:29:56;;;;;;;7.25;3.20;;;18.90;99.90;;;;;;10394134;28;20591;-76
2023/05/12 18:35:18;;;;;;;6.18;4.13;;;18.90;99.90;;;;;;10390144;28;20427;-79
2023/05/12 18:40:41;;;;;;;12.82;6.72;;;18.60;99.90;;;;;;10394874;28;20220;-77
2023/05/12 18:46:03;;;;;;;16.15;9.98;;;18.50;99.90;;;;;;10395022;28;20500;-78
2023/05/12 18:51:24;;;;;;;19.58;9.20;;;18.50;99.90;;;;;;10405740;28;20202;-79
2023/05/12 18:56:46;;;;;;;11.45;8.15;;;18.50;99.90;;;;;;10450432;28;20196;-79
2023/05/12 19:02:07;;;;;;;15.48;9.27;;;18.30;99.90;;;;;;10425948;28;20262;-79
2023/05/12 19:07:28;;;;;;;22.48;10.95;;;18.30;99.90;;;;;;10380018;28;20193;-79
2023/05/12 19:12:49;;;;;;;25.38;13.00;;;18.20;99.90;;;;;;10394018;28;20239;-80
2023/05/12 19:18:10;;;;;;;27.63;15.07;;;18.10;99.90;;;;;;10392789;28;20221;-79
2023/05/12 19:23:32;;;;;;;40.05;18.75;;;;;;;;;;10393967;28;20192;-75
2023/05/12 19:28:53;;;;;;;35.65;18.55;;;17.60;99.90;;;;;;10389945;28;20271;-79
2023/05/12 19:34:15;;;;;;;29.30;13.73;;;17.50;99.90;;;;;;10352329;28;20216;-79
2023/05/12 19:39:36;;;;;;;17.48;10.05;;;17.30;99.90;;;;;;10370089;28;20590;-78
2023/05/12 19:44:57;;;;;;;18.08;9.23;;;17.10;99.90;;;;;;10397525;28;20235;-79
2023/05/12 19:50:19;;;;;;;15.82;8.48;;;17.00;99.90;;;;;;10434791;28;20200;-78
2023/05/12 19:55:39;;;;;;;15.80;7.43;;;16.80;99.90;;;;;;10433265;28;20268;-78
2023/05/12 20:01:01;;;;;;;15.70;8.07;;;16.60;99.90;;;;;;10444000;28;20459;-79
2023/05/12 20:06:23;;;;;;;14.30;8.32;;;16.60;99.90;;;;;;10390766;28;20217;-79
2023/05/12 20:11:44;;;;;;;18.08;8.15;;;16.50;99.90;;;;;;10388336;28;20207;-78
2023/05/12 20:17:06;;;;;;;15.82;7.70;;;16.30;99.90;;;;;;10395382;28;20206;-78
2023/05/12 20:22:27;;;;;;;17.55;7.65;;;16.20;99.90;;;;;;10398726;28;20231;-79
2023/05/12 20:27:49;;;;;;;21.33;8.75;;;16.10;99.90;;;;;;10359068;28;20212;-78
2023/05/12 20:33:09;;;;;;;14.07;8.82;;;16.00;99.90;;;;;;10358931;28;20244;-77
2023/05/12 20:38:30;;;;;;;17.92;10.00;;;15.90;99.90;;;;;;10393863;28;20381;-79
2023/05/12 20:43:51;;;;;;;22.48;11.30;;;15.80;99.90;;;;;;10406944;28;20199;-78
2023/05/12 20:49:12;;;;;;;22.92;12.32;;;15.60;99.90;;;;;;10440145;28;20203;-78
2023/05/12 20:54:33;;;;;;;19.35;11.88;;;15.60;99.90;;;;;;10439933;28;20188;-78
2023/05/12 20:59:57;;;;;;;18.50;11.45;;;15.50;99.90;;;;;;10430214;28;20245;-77
2023/05/12 21:05:19;;;;;;;26.60;13.60;;;15.30;99.90;;;;;;10412496;28;20383;-79
2023/05/12 21:11:01;;;;;;;23.45;12.63;;;15.30;99.90;;;;;;10380083;28;20267;-78
2023/05/12 21:16:22;;;;;;;21.33;13.00;;;15.00;99.90;;;;;;10408349;28;20567;-79
2023/05/12 21:21:43;;;;;;;20.90;12.43;;;14.80;99.90;;;;;;10396307;28;20254;-78
2023/05/12 21:27:05;;;;;;;18.10;11.13;;;14.70;99.90;;;;;;10392220;28;20196;-78
2023/05/12 21:32:27;;;;;;;17.73;10.63;;;14.60;99.90;;;;;;10397168;28;20239;-78
2023/05/12 21:37:48;;;;;;;16.17;9.52;;;14.50;99.90;;;;;;10396928;28;20207;-77
2023/05/12 21:43:09;;;;;;;13.35;9.00;;;14.50;99.90;;;;;;10404120;28;20210;-77
2023/05/12 21:48:31;;;;;;;17.52;9.15;;;14.20;99.90;;;;;;10453168;28;20336;-77
2023/05/12 21:53:55;;;;;;;17.70;10.05;;;14.40;99.90;;;;;;10437726;28;20202;-78
2023/05/12 21:59:16;;;;;;;19.52;9.75;;;14.30;99.90;;;;;;10427903;28;20227;-78
2023/05/12 22:04:37;;;;;;;14.65;9.50;;;14.20;99.90;;;;;;10422109;28;20368;-77
2023/05/12 22:09:58;;;;;;;18.85;10.48;;;14.00;99.90;;;;;;10377739;28;20200;-78
2023/05/12 22:15:20;;;;;;;14.35;8.98;;;14.00;99.90;;;;;;10364437;28;20208;-77
2023/05/12 22:20:41;;;;;;;15.77;9.18;;;14.00;99.90;;;;;;10354005;28;20228;-77
2023/05/12 22:26:03;;;;;;;16.55;9.27;;;13.90;99.90;;;;;;10389080;28;20210;-77
2023/05/12 22:31:24;;;;;;;16.42;8.95;;;13.80;99.90;;;;;;10388278;28;20290;-78
2023/05/12 22:36:45;;;;;;;15.85;8.73;;;13.70;99.90;;;;;;10396294;28;20484;-77
2023/05/12 22:42:06;;;;;;;19.02;9.32;;;13.80;99.90;;;;;;10405950;28;20302;-76
2023/05/12 22:47:27;;;;;;;15.20;9.05;;;13.60;99.90;;;;;;10394477;28;20199;-78
2023/05/12 22:52:51;;;;;;;16.95;9.85;;;13.60;99.90;;;;;;10394891;28;20273;-78
2023/05/12 22:58:13;;;;;;;16.58;10.27;;;13.40;99.90;;;;;;10392931;28;20200;-76
2023/05/12 23:03:34;;;;;;;17.35;9.70;;;13.20;99.90;;;;;;10358307;28;20238;-77
2023/05/12 23:08:55;;;;;;;18.88;9.68;;;13.20;99.90;;;;;;10373730;28;20478;-76
2023/05/12 23:14:16;;;;;;;16.02;9.52;;;13.20;99.90;;;;;;10393091;28;20211;-79
2023/05/12 23:19:38;;;;;;;13.95;8.98;;;13.20;99.90;;;;;;10379361;28;20235;-78
2023/05/12 23:24:59;;;;;;;14.27;8.85;;;13.10;99.90;;;;;;10394127;28;20188;-79
2023/05/12 23:30:20;;;;;;;12.65;8.93;;;13.00;99.90;;;;;;10392514;28;20240;-78
2023/05/12 23:35:41;;;;;;;13.27;8.02;;;13.00;99.90;;;;;;10394059;28;20211;-79
2023/05/12 23:41:02;;;;;;;13.13;7.93;;;12.90;99.90;;;;;;10394204;28;20227;-79
2023/05/12 23:46:23;;;;;;;12.75;8.32;;;12.80;99.90;;;;;;10430628;28;20226;-78
2023/05/12 23:51:44;;;;;;;15.25;8.90;;;12.80;99.90;;;;;;10457929;28;20199;-79
2023/05/12 23:57:05;;;;;;;16.05;9.10;;;12.80;99.90;;;;;;10432457;28;20216;-79
